Wetterdaten: Woche 03.08.09 - 09.08.09 (KW32)
Datum Zeit Temp. A. Feuchte A. Luftdruck Regen Wind Richtung Taupunkt Windchill Windben
03.08.2009 00:00 21,2 C 63 % 1011,4 hPa 0,0 l/m 7,5 km/h SO 13,9 C 20,7 C 28,5 km/h
03.08.2009 01:00 20,5 C 67 % 1011,8 hPa 0,0 l/m 2,8 km/h NO 14,1 C 20,5 C 16,1 km/h
03.08.2009 02:00 19,5 C 71 % 1011,7 hPa 0,0 l/m 1,0 km/h NO 14,1 C 19,5 C 4,4 km/h
03.08.2009 03:00 20,4 C 65 % 1012,2 hPa 0,0 l/m 3,3 km/h O 13,6 C 20,4 C 19,7 km/h
03.08.2009 04:00 19,6 C 68 % 1012,8 hPa 0,0 l/m 1,5 km/h N-NO 13,4 C 19,6 C 9,2 km/h
03.08.2009 05:00 19,7 C 67 % 1012,8 hPa 0,0 l/m 1,7 km/h N-NW 13,4 C 19,7 C 7,6 km/h
03.08.2009 06:00 18,4 C 77 % 1013,2 hPa 0,6 l/m 1,2 km/h N-NW 14,3 C 18,4 C 4,4 km/h
03.08.2009 07:00 19,1 C 75 % 1013,2 hPa 0,0 l/m 1,7 km/h N-NW 14,6 C 19,1 C 5,6 km/h
03.08.2009 08:00 20,4 C 70 % 1013,3 hPa 0,0 l/m 2,2 km/h N-NW 14,7 C 20,4 C 8,0 km/h
03.08.2009 09:00 21,6 C 65 % 1013,4 hPa 0,0 l/m 3,8 km/h NW 14,7 C 21,6 C 11,3 km/h
03.08.2009 10:00 22,8 C 62 % 1013,4 hPa 0,0 l/m 3,6 km/h N-NO 15,0 C 22,8 C 12,5 km/h
03.08.2009 11:00 24,4 C 57 % 1013,3 hPa 0,0 l/m 2,8 km/h SW 15,3 C 24,4 C 9,3 km/h
03.08.2009 12:00 25,5 C 54 % 1012,9 hPa 0,0 l/m 2,4 km/h NO 15,5 C 25,5 C 7,2 km/h
03.08.2009 13:00 24,9 C 57 % 1013,0 hPa 0,0 l/m 1,6 km/h N-NW 15,8 C 24,9 C 6,8 km/h
03.08.2009 14:00 24,8 C 59 % 1012,9 hPa 0,0 l/m 2,0 km/h W-SW 16,1 C 24,8 C 6,0 km/h
03.08.2009 15:00 23,4 C 66 % 1013,3 hPa 0,0 l/m 1,5 km/h W-SW 16,6 C 23,4 C 7,2 km/h
03.08.2009 16:00 22,8 C 71 % 1012,8 hPa 0,0 l/m 0,6 km/h W-SW 17,3 C 22,8 C 3,2 km/h
03.08.2009 17:00 22,5 C 71 % 1012,8 hPa 0,0 l/m 0,5 km/h SW 16,9 C 22,5 C 3,6 km/h
03.08.2009 18:00 22,4 C 72 % 1012,3 hPa 0,0 l/m 0,5 km/h N 17,0 C 22,4 C 4,8 km/h
03.08.2009 19:00 21,7 C 74 % 1012,2 hPa 0,0 l/m 0,2 km/h N 16,8 C 21,7 C 2,4 km/h
03.08.2009 20:00 20,6 C 83 % 1012,0 hPa 0,3 l/m 1,3 km/h S-SO 17,6 C 20,6 C 8,4 km/h
03.08.2009 21:00 20,3 C 83 % 1012,2 hPa 0,0 l/m 0,8 km/h W-NW 17,2 C 20,3 C 8,0 km/h
03.08.2009 22:00 19,9 C 84 % 1013,0 hPa 1,3 l/m 2,9 km/h SW 17,1 C 19,9 C 12,9 km/h
03.08.2009 23:00 18,8 C 89 % 1013,3 hPa 3,5 l/m 0,5 km/h N 17,0 C 18,8 C 4,0 km/h
04.08.2009 00:00 18,4 C 91 % 1013,2 hPa 0,6 l/m 0,6 km/h SW 16,8 C 18,4 C 5,2 km/h
04.08.2009 01:00 18,3 C 91 % 1013,0 hPa 0,6 l/m 0,5 km/h N 16,7 C 18,3 C 4,0 km/h
04.08.2009 02:00 18,0 C 92 % 1012,5 hPa 0,3 l/m 0,2 km/h W-SW 16,7 C 18,0 C 2,8 km/h
04.08.2009 03:00 18,0 C 92 % 1012,3 hPa 0,6 l/m 1,3 km/h S-SW 16,6 C 18,0 C 7,7 km/h
04.08.2009 04:00 17,8 C 92 % 1011,3 hPa 0,0 l/m 1,4 km/h N-NW 16,5 C 17,8 C 5,2 km/h
04.08.2009 05:00 18,1 C 92 % 1012,0 hPa 2,6 l/m 1,3 km/h SW 16,7 C 18,1 C 6,0 km/h
04.08.2009 06:00 18,1 C 92 % 1012,1 hPa 4,2 l/m 1,6 km/h O-NO 16,8 C 18,1 C 5,2 km/h
04.08.2009 07:00 18,2 C 93 % 1012,0 hPa 0,0 l/m 2,4 km/h N-NW 17,0 C 18,2 C 6,4 km/h
04.08.2009 08:00 18,2 C 92 % 1012,4 hPa 1,9 l/m 2,0 km/h NW 16,9 C 18,2 C 7,3 km/h
04.08.2009 09:00 17,8 C 93 % 1013,3 hPa 2,2 l/m 2,5 km/h N-NO 16,6 C 17,7 C 8,4 km/h
04.08.2009 10:00 18,0 C 93 % 1013,4 hPa 0,3 l/m 1,6 km/h N-NO 16,9 C 18,0 C 5,2 km/h
04.08.2009 11:00 18,3 C 91 % 1013,5 hPa 0,0 l/m 3,9 km/h N-NW 16,7 C 18,3 C 10,4 km/h
04.08.2009 12:00 18,3 C 88 % 1014,0 hPa 0,0 l/m 3,9 km/h N-NO 16,3 C 18,3 C 10,1 km/h
04.08.2009 13:00 18,1 C 90 % 1014,2 hPa 2,9 l/m 3,3 km/h NW 16,4 C 18,1 C 7,6 km/h
04.08.2009 14:00 18,1 C 92 % 1014,2 hPa 1,9 l/m 3,2 km/h N-NW 16,7 C 18,1 C 8,4 km/h
04.08.2009 15:00 17,9 C 92 % 1014,8 hPa 5,1 l/m 2,3 km/h NW 16,6 C 17,9 C 7,6 km/h
04.08.2009 16:00 18,2 C 93 % 1014,8 hPa 1,0 l/m 4,4 km/h N-NW 16,9 C 18,2 C 10,5 km/h
04.08.2009 17:00 18,3 C 91 % 1015,2 hPa 0,0 l/m 4,1 km/h NW 16,7 C 18,3 C 9,7 km/h
04.08.2009 18:00 18,3 C 88 % 1015,3 hPa 0,0 l/m 4,9 km/h NW 16,3 C 18,3 C 15,3 km/h
04.08.2009 19:00 18,2 C 87 % 1015,8 hPa 0,0 l/m 3,9 km/h O-SO 15,9 C 18,2 C 13,7 km/h
04.08.2009 20:00 17,9 C 85 % 1016,2 hPa 0,0 l/m 4,5 km/h N-NW 15,4 C 17,9 C 16,9 km/h
04.08.2009 21:00 17,8 C 85 % 1017,0 hPa 0,0 l/m 4,7 km/h N 15,3 C 17,8 C 14,1 km/h
04.08.2009 22:00 17,9 C 84 % 1017,4 hPa 0,0 l/m 3,2 km/h NW 15,2 C 17,9 C 12,1 km/h
04.08.2009 23:00 17,8 C 84 % 1017,5 hPa 0,0 l/m 3,4 km/h NW 15,1 C 17,8 C 11,7 km/h
05.08.2009 00:00 17,7 C 84 % 1018,0 hPa 0,0 l/m 3,5 km/h NW 15,0 C 17,7 C 11,3 km/h
05.08.2009 01:00 17,6 C 84 % 1018,2 hPa 0,0 l/m 4,1 km/h NW 14,9 C 17,6 C 11,3 km/h
05.08.2009 02:00 17,7 C 84 % 1018,6 hPa 0,0 l/m 2,8 km/h NW 14,9 C 17,7 C 9,6 km/h
05.08.2009 03:00 17,6 C 83 % 1018,5 hPa 0,0 l/m 2,9 km/h NW 14,7 C 17,6 C 11,7 km/h
05.08.2009 04:00 17,7 C 82 % 1018,3 hPa 0,0 l/m 3,3 km/h N-NW 14,5 C 17,7 C 12,9 km/h
05.08.2009 05:00 17,6 C 82 % 1018,4 hPa 0,0 l/m 3,4 km/h S 14,6 C 17,6 C 12,1 km/h
05.08.2009 06:00 17,6 C 83 % 1018,3 hPa 0,0 l/m 3,2 km/h N-NW 14,7 C 17,6 C 13,3 km/h
05.08.2009 07:00 17,8 C 82 % 1018,3 hPa 0,0 l/m 3,4 km/h NW 14,8 C 17,8 C 10,1 km/h
05.08.2009 08:00 18,7 C 80 % 1018,4 hPa 0,0 l/m 5,2 km/h N-NW 15,1 C 18,7 C 14,1 km/h
05.08.2009 09:00 19,4 C 78 % 1018,3 hPa 0,0 l/m 5,9 km/h O-NO 15,5 C 19,4 C 18,1 km/h
05.08.2009 10:00 20,3 C 76 % 1018,3 hPa 0,0 l/m 4,8 km/h NW 15,9 C 20,3 C 14,1 km/h
05.08.2009 11:00 20,6 C 76 % 1018,5 hPa 0,0 l/m 4,7 km/h N-NW 16,2 C 20,6 C 13,3 km/h
05.08.2009 12:00 21,6 C 75 % 1018,5 hPa 0,0 l/m 4,6 km/h NW 16,9 C 21,6 C 12,1 km/h
05.08.2009 13:00 22,0 C 76 % 1018,5 hPa 0,0 l/m 3,4 km/h N-NW 17,4 C 22,0 C 11,3 km/h
05.08.2009 14:00 21,4 C 75 % 1018,5 hPa 0,0 l/m 4,4 km/h N-NW 16,9 C 21,4 C 12,5 km/h
05.08.2009 15:00 22,7 C 72 % 1018,0 hPa 0,0 l/m 4,6 km/h NW 17,2 C 22,7 C 15,3 km/h
05.08.2009 16:00 23,3 C 68 % 1017,7 hPa 0,0 l/m 4,8 km/h N 17,0 C 23,3 C 15,7 km/h
05.08.2009 17:00 23,4 C 68 % 1017,5 hPa 0,0 l/m 5,2 km/h NW 17,2 C 23,4 C 15,3 km/h
05.08.2009 18:00 23,0 C 71 % 1017,6 hPa 0,0 l/m 4,4 km/h O-NO 17,3 C 23,0 C 12,9 km/h
05.08.2009 19:00 22,2 C 71 % 1017,6 hPa 0,0 l/m 2,2 km/h O 16,7 C 22,2 C 8,4 km/h
05.08.2009 20:00 21,6 C 72 % 1017,8 hPa 0,0 l/m 1,9 km/h S-SO 16,3 C 21,6 C 7,2 km/h
05.08.2009 21:00 21,2 C 73 % 1018,1 hPa 0,0 l/m 2,1 km/h N-NW 16,2 C 21,2 C 7,2 km/h
05.08.2009 22:00 20,4 C 78 % 1018,5 hPa 0,0 l/m 2,1 km/h N-NW 16,4 C 20,4 C 6,0 km/h
05.08.2009 23:00 19,8 C 81 % 1018,6 hPa 0,0 l/m 2,6 km/h N-NW 16,4 C 19,8 C 6,0 km/h
06.08.2009 00:00 19,4 C 83 % 1018,8 hPa 0,0 l/m 2,3 km/h N-NW 16,4 C 19,4 C 5,6 km/h
06.08.2009 01:00 19,0 C 84 % 1018,7 hPa 0,0 l/m 2,5 km/h N-NW 16,2 C 19,0 C 6,4 km/h
06.08.2009 02:00 19,3 C 82 % 1018,3 hPa 0,0 l/m 3,0 km/h N-NW 16,1 C 19,3 C 7,6 km/h
06.08.2009 03:00 19,0 C 82 % 1018,0 hPa 0,0 l/m 2,2 km/h N-NW 15,9 C 19,0 C 6,8 km/h
06.08.2009 04:00 18,8 C 83 % 1018,1 hPa 0,0 l/m 3,0 km/h NW 15,8 C 18,8 C 7,6 km/h
06.08.2009 05:00 18,6 C 82 % 1018,3 hPa 0,0 l/m 1,8 km/h N-NW 15,6 C 18,6 C 5,6 km/h
06.08.2009 06:00 18,6 C 83 % 1018,4 hPa 0,0 l/m 2,5 km/h N-NW 15,5 C 18,6 C 6,8 km/h
06.08.2009 07:00 19,3 C 80 % 1018,3 hPa 0,0 l/m 4,2 km/h N-NW 15,7 C 19,3 C 9,3 km/h
06.08.2009 08:00 20,2 C 77 % 1018,5 hPa 0,0 l/m 4,1 km/h N-NW 15,9 C 20,2 C 9,7 km/h
06.08.2009 09:00 20,6 C 76 % 1018,7 hPa 0,0 l/m 3,5 km/h N-NW 16,1 C 20,6 C 8,8 km/h
06.08.2009 10:00 21,6 C 73 % 1018,5 hPa 0,0 l/m 4,9 km/h N-NO 16,6 C 21,6 C 11,3 km/h
06.08.2009 11:00 23,2 C 67 % 1018,5 hPa 0,0 l/m 5,6 km/h N-NW 16,6 C 23,1 C 13,7 km/h
06.08.2009 12:00 23,7 C 66 % 1018,3 hPa 0,0 l/m 6,1 km/h N 16,9 C 23,6 C 14,9 km/h
06.08.2009 13:00 23,9 C 64 % 1018,0 hPa 0,0 l/m 5,6 km/h W-NW 16,7 C 23,9 C 14,5 km/h
06.08.2009 14:00 24,7 C 63 % 1017,6 hPa 0,0 l/m 6,1 km/h N-NW 17,1 C 24,6 C 14,5 km/h
06.08.2009 15:00 25,0 C 61 % 1017,3 hPa 0,0 l/m 6,3 km/h N-NW 16,9 C 25,0 C 16,5 km/h
06.08.2009 16:00 25,1 C 59 % 1017,2 hPa 0,0 l/m 5,9 km/h N-NW 16,6 C 25,1 C 15,7 km/h
06.08.2009 17:00 25,3 C 55 % 1017,1 hPa 0,0 l/m 4,8 km/h N-NO 15,6 C 25,3 C 12,9 km/h
06.08.2009 18:00 25,1 C 56 % 1016,9 hPa 0,0 l/m 4,6 km/h N 15,6 C 25,1 C 11,7 km/h
06.08.2009 19:00 24,1 C 58 % 1017,0 hPa 0,0 l/m 2,8 km/h N-NW 15,3 C 24,1 C 8,9 km/h
06.08.2009 20:00 22,5 C 64 % 1017,5 hPa 0,0 l/m 1,2 km/h N-NW 15,3 C 22,5 C 4,0 km/h
06.08.2009 21:00 21,3 C 67 % 1018,0 hPa 0,0 l/m 1,2 km/h N-NW 15,0 C 21,3 C 3,2 km/h
06.08.2009 22:00 21,0 C 68 % 1018,1 hPa 0,0 l/m 1,3 km/h N-NW 14,8 C 21,0 C 3,6 km/h
06.08.2009 23:00 21,3 C 66 % 1018,0 hPa 0,0 l/m 0,8 km/h N 14,7 C 21,3 C 3,2 km/h
07.08.2009 00:00 21,3 C 65 % 1017,7 hPa 0,0 l/m 2,0 km/h N-NW 14,5 C 21,3 C 5,2 km/h
07.08.2009 01:00 21,2 C 67 % 1017,3 hPa 0,0 l/m 2,7 km/h N-NW 14,8 C 21,2 C 6,0 km/h
07.08.2009 02:00 20,3 C 71 % 1017,2 hPa 0,0 l/m 2,3 km/h N-NW 14,7 C 20,3 C 5,6 km/h
07.08.2009 03:00 19,4 C 74 % 1017,3 hPa 0,0 l/m 1,0 km/h N-NW 14,7 C 19,4 C 4,4 km/h
07.08.2009 04:00 18,9 C 75 % 1017,1 hPa 0,0 l/m 0,8 km/h N 14,4 C 18,9 C 3,2 km/h
07.08.2009 05:00 18,2 C 78 % 1017,1 hPa 0,0 l/m 0,1 km/h N 14,3 C 18,2 C 1,6 km/h
07.08.2009 06:00 18,3 C 78 % 1017,3 hPa 0,0 l/m 0,1 km/h N 14,5 C 18,3 C 2,0 km/h
07.08.2009 07:00 19,3 C 76 % 1017,4 hPa 0,0 l/m 1,5 km/h N-NW 14,9 C 19,3 C 5,6 km/h
07.08.2009 08:00 19,9 C 74 % 1017,6 hPa 0,0 l/m 1,9 km/h NO 15,2 C 19,9 C 7,2 km/h
07.08.2009 09:00 20,6 C 73 % 1017,6 hPa 0,0 l/m 2,4 km/h N-NW 15,6 C 20,6 C 8,4 km/h
07.08.2009 10:00 21,7 C 70 % 1017,6 hPa 0,0 l/m 3,0 km/h N-NW 16,0 C 21,7 C 8,9 km/h
07.08.2009 11:00 23,1 C 69 % 1017,7 hPa 0,0 l/m 2,0 km/h NO 17,1 C 23,1 C 7,6 km/h
07.08.2009 12:00 24,3 C 65 % 1017,4 hPa 0,0 l/m 2,3 km/h NW 17,2 C 24,3 C 8,0 km/h
07.08.2009 13:00 25,4 C 62 % 1017,3 hPa 0,0 l/m 2,7 km/h NW 17,5 C 25,4 C 8,6 km/h
07.08.2009 14:00 24,8 C 66 % 1017,1 hPa 0,0 l/m 1,4 km/h N 18,0 C 24,8 C 4,8 km/h
07.08.2009 15:00 25,0 C 62 % 1016,8 hPa 0,0 l/m 0,9 km/h N 17,1 C 25,0 C 6,4 km/h
07.08.2009 16:00 25,2 C 60 % 1016,7 hPa 0,0 l/m 0,1 km/h N 16,9 C 25,2 C 1,6 km/h
07.08.2009 17:00 27,4 C 53 % 1015,8 hPa 0,0 l/m 1,6 km/h SW 17,0 C 27,4 C 4,0 km/h
07.08.2009 18:00 27,2 C 52 % 1015,8 hPa 0,0 l/m 3,8 km/h N 16,5 C 27,2 C 8,0 km/h
07.08.2009 19:00 25,1 C 60 % 1015,8 hPa 0,0 l/m 0,1 km/h N 16,8 C 25,1 C 1,1 km/h
07.08.2009 20:00 23,3 C 70 % 1015,9 hPa 0,0 l/m 0,1 km/h N 17,4 C 23,3 C 2,4 km/h
07.08.2009 21:00 22,0 C 74 % 1016,5 hPa 0,0 l/m 0,2 km/h N 17,1 C 22,0 C 2,0 km/h
07.08.2009 22:00 21,3 C 76 % 1016,7 hPa 0,0 l/m 0,2 km/h N 16,8 C 21,3 C 2,8 km/h
07.08.2009 23:00 20,0 C 79 % 1016,9 hPa 0,0 l/m 0,1 km/h N 16,1 C 20,0 C 2,0 km/h
08.08.2009 00:00 18,8 C 81 % 1017,1 hPa 0,0 l/m 0,0 km/h N 15,5 C 18,8 C 1,6 km/h
08.08.2009 01:00 17,7 C 83 % 1017,1 hPa 0,0 l/m 0,0 km/h N 14,8 C 17,7 C 0,4 km/h
08.08.2009 02:00 17,5 C 84 % 1016,9 hPa 0,0 l/m 0,0 km/h N 14,6 C 17,5 C 1,2 km/h
08.08.2009 03:00 17,1 C 84 % 1016,8 hPa 0,0 l/m 0,1 km/h N 14,4 C 17,1 C 2,0 km/h
08.08.2009 04:00 16,2 C 86 % 1016,7 hPa 0,0 l/m 0,0 km/h N 13,9 C 16,2 C 0,8 km/h
08.08.2009 05:00 15,5 C 88 % 1016,6 hPa 0,0 l/m 0,0 km/h N 13,5 C 15,5 C 0,4 km/h
08.08.2009 06:00 15,6 C 87 % 1016,7 hPa 0,0 l/m 0,0 km/h N 13,5 C 15,6 C 1,6 km/h
08.08.2009 07:00 16,7 C 85 % 1016,9 hPa 0,0 l/m 0,1 km/h N 14,1 C 16,7 C 2,0 km/h
08.08.2009 08:00 18,1 C 80 % 1016,9 hPa 0,0 l/m 0,0 km/h N 14,5 C 18,1 C 0,4 km/h
08.08.2009 09:00 20,1 C 73 % 1016,9 hPa 0,0 l/m 0,1 km/h N 15,1 C 20,1 C 1,2 km/h
08.08.2009 10:00 21,7 C 70 % 1016,8 hPa 0,0 l/m 0,3 km/h N 15,9 C 21,7 C 2,8 km/h
08.08.2009 11:00 23,1 C 69 % 1016,7 hPa 0,0 l/m 0,7 km/h N 17,0 C 23,1 C 4,0 km/h
08.08.2009 12:00 25,0 C 64 % 1016,2 hPa 0,0 l/m 1,0 km/h O-NO 17,6 C 25,0 C 5,2 km/h
08.08.2009 13:00 25,5 C 58 % 1015,9 hPa 0,0 l/m 1,1 km/h O 16,6 C 25,5 C 6,4 km/h
08.08.2009 14:00 25,0 C 60 % 1015,5 hPa 0,0 l/m 0,9 km/h O-SO 16,6 C 25,0 C 4,0 km/h
08.08.2009 15:00 25,2 C 58 % 1015,2 hPa 0,0 l/m 1,5 km/h O-NO 16,4 C 25,2 C 4,8 km/h
08.08.2009 16:00 26,1 C 56 % 1015,2 hPa 0,0 l/m 2,4 km/h O 16,5 C 26,1 C 6,8 km/h
08.08.2009 17:00 26,2 C 56 % 1015,0 hPa 0,0 l/m 4,3 km/h S-SO 16,8 C 26,2 C 13,3 km/h
08.08.2009 18:00 24,0 C 71 % 1014,9 hPa 0,0 l/m 0,8 km/h NW 18,4 C 24,0 C 4,4 km/h
08.08.2009 19:00 23,6 C 67 % 1015,0 hPa 0,0 l/m 0,9 km/h S-SW 17,2 C 23,6 C 6,0 km/h
08.08.2009 20:00 22,1 C 74 % 1015,2 hPa 0,0 l/m 0,1 km/h N 17,1 C 22,1 C 1,6 km/h
08.08.2009 21:00 20,9 C 82 % 1015,8 hPa 0,0 l/m 0,1 km/h N 17,6 C 20,9 C 1,2 km/h
08.08.2009 22:00 19,4 C 86 % 1016,1 hPa 0,0 l/m 0,0 km/h N 16,9 C 19,4 C 0,4 km/h
08.08.2009 23:00 19,2 C 85 % 1016,1 hPa 0,0 l/m 0,0 km/h N 16,6 C 19,2 C 0,4 km/h
09.08.2009 00:00 18,8 C 87 % 1016,2 hPa 0,0 l/m 0,0 km/h N 16,6 C 18,8 C 0,0 km/h
09.08.2009 01:00 18,4 C 90 % 1016,1 hPa 0,0 l/m 0,0 km/h N 16,6 C 18,4 C 0,0 km/h
09.08.2009 02:00 18,3 C 90 % 1016,1 hPa 0,0 l/m 0,0 km/h N 16,5 C 18,3 C 0,4 km/h
09.08.2009 03:00 18,2 C 90 % 1016,1 hPa 0,0 l/m 0,0 km/h N 16,6 C 18,2 C 0,0 km/h
09.08.2009 04:00 18,3 C 92 % 1016,0 hPa 0,0 l/m 0,0 km/h N 16,9 C 18,3 C 0,0 km/h
09.08.2009 05:00 18,1 C 93 % 1016,2 hPa 0,0 l/m 0,0 km/h N 16,9 C 18,1 C 0,0 km/h
09.08.2009 06:00 18,6 C 93 % 1016,3 hPa 0,0 l/m 0,0 km/h N 17,5 C 18,6 C 0,0 km/h
09.08.2009 07:00 19,5 C 87 % 1016,5 hPa 0,0 l/m 0,1 km/h N 17,3 C 19,5 C 1,2 km/h
09.08.2009 08:00 20,1 C 81 % 1016,7 hPa 0,0 l/m 0,4 km/h N 16,6 C 20,1 C 3,6 km/h
09.08.2009 09:00 20,5 C 73 % 1016,9 hPa 0,0 l/m 0,6 km/h O 15,5 C 20,5 C 4,4 km/h
09.08.2009 10:00 20,7 C 69 % 1017,2 hPa 0,0 l/m 0,6 km/h O-SO 14,7 C 20,7 C 3,2 km/h
09.08.2009 11:00 20,9 C 69 % 1017,4 hPa 0,0 l/m 1,5 km/h O-SO 14,9 C 20,9 C 6,0 km/h
09.08.2009 12:00 21,5 C 69 % 1017,4 hPa 0,0 l/m 0,9 km/h O-SO 15,5 C 21,5 C 4,8 km/h
09.08.2009 13:00 21,6 C 69 % 1017,5 hPa 0,0 l/m 1,4 km/h O-SO 15,6 C 21,6 C 5,6 km/h
09.08.2009 14:00 21,3 C 72 % 1017,7 hPa 0,0 l/m 1,4 km/h O-SO 15,9 C 21,3 C 6,4 km/h
09.08.2009 15:00 21,5 C 73 % 1017,5 hPa 0,0 l/m 1,4 km/h O 16,3 C 21,5 C 6,0 km/h
09.08.2009 16:00 21,7 C 71 % 1017,3 hPa 0,0 l/m 1,5 km/h SW 16,1 C 21,7 C 7,6 km/h
09.08.2009 17:00 21,1 C 74 % 1017,2 hPa 0,0 l/m 1,4 km/h SW 16,2 C 21,1 C 6,9 km/h
09.08.2009 18:00 20,6 C 73 % 1017,1 hPa 0,0 l/m 0,2 km/h SW 15,6 C 20,6 C 2,8 km/h
09.08.2009 19:00 20,3 C 73 % 1017,0 hPa 0,0 l/m 1,9 km/h S 15,2 C 20,3 C 10,1 km/h
09.08.2009 20:00 19,8 C 77 % 1017,1 hPa 0,0 l/m 0,8 km/h N 15,5 C 19,8 C 5,6 km/h
09.08.2009 21:00 19,1 C 78 % 1017,3 hPa 0,0 l/m 0,0 km/h N 15,2 C 19,1 C 0,8 km/h
09.08.2009 22:00 18,7 C 81 % 1017,3 hPa 0,0 l/m 0,0 km/h N 15,3 C 18,7 C 0,0 km/h
09.08.2009 23:00 18,5 C 80 % 1017,1 hPa 0,0 l/m 0,1 km/h N 15,1 C 18,5 C 2,4 km/h
Min-Datum _ 08.08.09 03.08.09 04.08.09 - 03.08.09 - 03.08.09 08.08.09 03.08.09
_ Min-Zeit 05:45 12:45 04:30 - 16:30 - 05:00 05:45 18:45
Minimum _ 15,3 C 50 % 1010,9 hPa - 0,0 km/h - 13,0 C 15,3 C 0,0 km/h
Max-Datum _ 07.08.09 04.08.09 06.08.09 04.08.09 03.08.09 - 08.08.09 07.08.09 03.08.09
_ Max-Zeit 17:36 07:00 00:00 15:15 00:15 - 18:45 17:36 00:15
Maximum _ 27,6 C 93 % 1018,8 hPa 5,1 l/m 10,2 km/h
SO
- 18,8 C 27,6 C 40,2 km/h
W-SW
Durchschnitt _ 20,6 C 76 % 1016,1 hPa #30,1 l/m 2,1 km/h N-NW 16,0 C 20,6 C 7,1 km/h